Time;durP1;ratioP1;P1;durP2;ratioP2;P2;SDS_P1;SDS_P2;PMS_P1;PMS_P2;Temp;Humidity;BMP_temperature;BMP_pressure;BME280_temperature;BME280_humidity;BME280_pressure;Samples;Min_cycle;Max_cycle;Signal;HPM_P1;HPM_P2
2020/12/12 00:01:38;;;;;;;8.02;5.63;;;6.90;99.90;;;;;;5073612;28;20094;-64
2020/12/12 00:04:06;;;;;;;6.97;5.35;;;6.80;99.90;;;;;;5073895;28;20056;-64
2020/12/12 00:06:32;;;;;;;6.43;5.38;;;6.60;99.90;;;;;;5073973;28;20201;-64
2020/12/12 00:08:59;;;;;;;7.15;5.65;;;6.60;99.90;;;;;;5073879;28;20438;-64
2020/12/12 00:11:25;;;;;;;6.57;5.68;;;6.70;99.90;;;;;;5073398;28;20451;-64
2020/12/12 00:13:52;;;;;;;8.02;5.90;;;6.50;99.90;;;;;;5073720;28;20135;-64
2020/12/12 00:16:19;;;;;;;6.45;5.20;;;6.70;99.90;;;;;;5072928;28;20127;-64
2020/12/12 00:18:45;;;;;;;6.90;5.40;;;6.60;99.90;;;;;;5073674;28;20091;-64
2020/12/12 00:21:13;;;;;;;7.22;5.85;;;6.60;99.90;;;;;;5073436;28;20080;-64
2020/12/12 00:23:40;;;;;;;6.47;5.32;;;6.60;99.90;;;;;;5073723;28;20048;-64
2020/12/12 00:26:07;;;;;;;7.72;5.80;;;6.70;99.90;;;;;;5072987;28;20087;-64
2020/12/12 00:28:34;;;;;;;6.60;5.35;;;6.60;99.90;;;;;;5073551;28;20489;-64
2020/12/12 00:31:01;;;;;;;6.13;5.40;;;6.60;99.90;;;;;;5073746;28;20493;-64
2020/12/12 00:33:27;;;;;;;7.30;5.50;;;6.60;99.90;;;;;;5073292;28;20052;-64
2020/12/12 00:35:54;;;;;;;6.68;5.25;;;6.50;99.90;;;;;;5073098;28;20071;-64
2020/12/12 00:38:21;;;;;;;6.97;5.07;;;6.50;99.90;;;;;;5072994;28;20082;-64
2020/12/12 00:40:57;;;;;;;7.47;5.65;;;6.50;99.90;;;;;;5072818;28;20139;-64
2020/12/12 00:43:23;;;;;;;8.27;6.60;;;6.50;99.90;;;;;;5073105;28;20064;-64
2020/12/12 00:45:50;;;;;;;6.88;5.35;;;6.60;99.90;;;;;;5073106;28;20070;-64
2020/12/12 00:48:16;;;;;;;7.72;5.90;;;6.50;99.90;;;;;;5073050;28;20057;-64
2020/12/12 00:50:45;;;;;;;7.47;5.50;;;6.70;99.90;;;;;;5072878;28;20060;-64
2020/12/12 00:53:12;;;;;;;6.75;5.97;;;6.60;99.90;;;;;;5072788;28;20377;-64
2020/12/12 00:55:39;;;;;;;7.82;5.88;;;6.60;99.90;;;;;;5073067;28;20070;-64
2020/12/12 00:58:06;;;;;;;7.65;5.85;;;6.70;99.90;;;;;;5072801;28;20056;-64
2020/12/12 01:00:33;;;;;;;7.13;5.65;;;6.80;99.90;;;;;;5072897;28;20080;-64
2020/12/12 01:03:00;;;;;;;6.57;5.28;;;6.90;99.90;;;;;;5072300;28;20052;-64
2020/12/12 01:05:27;;;;;;;7.38;5.93;;;7.00;99.90;;;;;;5072483;28;20417;-64
2020/12/12 01:07:54;;;;;;;8.13;6.03;;;7.00;99.90;;;;;;5072822;28;20768;-64
2020/12/12 01:10:21;;;;;;;6.72;5.28;;;7.00;99.90;;;;;;5072682;28;20060;-64
2020/12/12 01:12:49;;;;;;;7.63;5.50;;;7.00;99.90;;;;;;5072814;28;20083;-64
2020/12/12 01:15:15;;;;;;;7.25;5.40;;;7.00;99.90;;;;;;5072763;28;20079;-64
2020/12/12 01:17:44;;;;;;;7.72;6.03;;;6.80;99.90;;;;;;5072459;28;20088;-64
2020/12/12 01:20:18;;;;;;;7.80;6.13;;;7.00;99.90;;;;;;5072507;28;20557;-64
2020/12/12 01:22:45;;;;;;;6.32;5.40;;;7.10;99.90;;;;;;5072882;28;20147;-64
2020/12/12 01:25:11;;;;;;;9.65;5.82;;;7.00;99.90;;;;;;5072522;28;20087;-64
2020/12/12 01:27:38;;;;;;;8.93;6.05;;;7.10;99.90;;;;;;5072151;28;20048;-64
2020/12/12 01:30:05;;;;;;;6.80;5.38;;;7.20;99.90;;;;;;5072376;28;20088;-64
2020/12/12 01:32:32;;;;;;;6.32;4.65;;;7.10;99.90;;;;;;5072233;28;20045;-64
2020/12/12 01:34:58;;;;;;;7.43;5.35;;;7.10;99.90;;;;;;5072240;28;20095;-64
2020/12/12 01:37:25;;;;;;;7.22;5.80;;;7.10;99.90;;;;;;5072616;28;20110;-64
2020/12/12 01:39:51;;;;;;;6.63;4.50;;;7.30;99.90;;;;;;5072151;28;20091;-64
2020/12/12 01:42:18;;;;;;;7.63;5.18;;;7.30;99.90;;;;;;5071836;28;20072;-64
2020/12/12 01:44:45;;;;;;;8.10;6.10;;;7.40;99.90;;;;;;5071668;28;20127;-64
2020/12/12 01:47:12;;;;;;;6.18;4.95;;;7.50;99.90;;;;;;5072577;28;20044;-64
2020/12/12 01:49:39;;;;;;;6.03;4.90;;;7.60;99.90;;;;;;5074546;28;20084;-64
2020/12/12 01:52:07;;;;;;;6.88;5.78;;;7.50;99.90;;;;;;5076240;28;20533;-64
2020/12/12 01:54:33;;;;;;;7.28;5.55;;;7.30;99.90;;;;;;5076171;28;20056;-64
2020/12/12 01:57:04;;;;;;;6.53;4.90;;;7.20;99.90;;;;;;5075980;28;20260;-64
2020/12/12 01:59:30;;;;;;;6.93;4.93;;;7.00;99.90;;;;;;5076148;28;20529;-64
2020/12/12 02:02:00;;;;;;;6.43;4.53;;;7.00;99.90;;;;;;5076445;28;20603;-64
2020/12/12 02:04:29;;;;;;;7.45;5.18;;;7.00;99.90;;;;;;5076172;28;20467;-64
2020/12/12 02:06:56;;;;;;;7.25;5.68;;;7.00;99.90;;;;;;5076062;28;20064;-64
2020/12/12 02:09:23;;;;;;;7.05;5.30;;;6.90;99.90;;;;;;5076172;28;20360;-64
2020/12/12 02:11:50;;;;;;;6.93;5.20;;;6.90;99.90;;;;;;5076088;28;20127;-64
2020/12/12 02:14:17;;;;;;;6.78;5.07;;;6.80;99.90;;;;;;5075615;28;20083;-64
2020/12/12 02:16:56;;;;;;;6.25;4.90;;;6.80;99.90;;;;;;5076092;28;20419;-64
2020/12/12 02:19:26;;;;;;;6.72;5.05;;;6.80;99.90;;;;;;5075975;28;20044;-64
2020/12/12 02:21:57;;;;;;;6.18;5.25;;;6.90;99.90;;;;;;5075955;28;20131;-64
2020/12/12 02:24:23;;;;;;;6.93;4.47;;;6.90;99.90;;;;;;5075672;28;20052;-64
2020/12/12 02:26:51;;;;;;;7.65;5.32;;;6.80;99.90;;;;;;5075728;28;20059;-64
2020/12/12 02:29:18;;;;;;;5.95;4.72;;;6.80;99.90;;;;;;5075389;28;20098;-64
2020/12/12 02:31:45;;;;;;;7.82;5.20;;;6.80;99.90;;;;;;5075704;28;20083;-64
2020/12/12 02:34:14;;;;;;;6.60;5.00;;;6.90;99.90;;;;;;5075351;28;20370;-64
2020/12/12 02:36:43;;;;;;;6.38;4.95;;;7.10;99.90;;;;;;5075729;28;20135;-64
2020/12/12 02:39:16;;;;;;;6.80;4.80;;;6.90;99.90;;;;;;5075444;28;20052;-64
2020/12/12 02:41:42;;;;;;;6.85;5.07;;;7.00;99.90;;;;;;5075385;28;20123;-64
2020/12/12 02:44:09;;;;;;;6.65;5.30;;;6.90;99.90;;;;;;5075078;28;20099;-64
2020/12/12 02:46:35;;;;;;;6.57;4.90;;;6.90;99.90;;;;;;5075115;28;20098;-64
2020/12/12 02:49:02;;;;;;;6.75;5.22;;;7.00;99.90;;;;;;5075300;28;20084;-64
2020/12/12 02:51:28;;;;;;;6.32;4.55;;;7.10;99.90;;;;;;5075359;28;20084;-64
2020/12/12 02:53:55;;;;;;;6.63;5.15;;;7.20;99.90;;;;;;5074851;28;20084;-64
2020/12/12 02:56:22;;;;;;;7.30;5.90;;;7.20;99.90;;;;;;5075070;28;20052;-64
2020/12/12 02:58:49;;;;;;;6.10;4.78;;;7.10;99.90;;;;;;5075330;28;20080;-64
2020/12/12 03:01:15;;;;;;;6.50;5.25;;;7.10;99.90;;;;;;5073863;28;20052;-64
2020/12/12 03:03:42;;;;;;;6.88;5.10;;;7.20;99.90;;;;;;5074970;28;20550;-64
2020/12/12 03:06:08;;;;;;;7.00;5.15;;;7.30;99.90;;;;;;5075551;28;20128;-64
2020/12/12 03:08:35;;;;;;;6.70;5.38;;;7.20;99.90;;;;;;5074222;28;20562;-64
2020/12/12 03:11:01;;;;;;;5.93;4.80;;;7.10;99.90;;;;;;5074958;28;20405;-64
2020/12/12 03:13:29;;;;;;;7.50;5.60;;;7.20;99.90;;;;;;5074859;28;20048;-64
2020/12/12 03:15:55;;;;;;;8.20;5.50;;;7.30;99.90;;;;;;5074923;28;20056;-64
2020/12/12 03:18:22;;;;;;;7.15;5.43;;;7.40;99.90;;;;;;5075129;28;20053;-64
2020/12/12 03:20:48;;;;;;;6.38;4.93;;;7.30;99.90;;;;;;5074740;28;20053;-64
2020/12/12 03:23:15;;;;;;;5.93;4.32;;;7.40;99.90;;;;;;5074639;28;20099;-65
2020/12/12 03:25:42;;;;;;;7.43;5.72;;;7.50;99.90;;;;;;5074514;28;20048;-64
2020/12/12 03:28:09;;;;;;;8.05;6.45;;;7.50;99.90;;;;;;5074780;28;20505;-64
2020/12/12 03:30:41;;;;;;;9.35;6.13;;;7.40;99.90;;;;;;5074171;28;20543;-64
2020/12/12 03:33:08;;;;;;;9.68;6.45;;;7.40;99.90;;;;;;5074486;28;20045;-64
2020/12/12 03:35:34;;;;;;;9.55;6.45;;;7.50;99.90;;;;;;5074077;28;20475;-64
2020/12/12 03:38:02;;;;;;;8.13;6.13;;;7.50;99.90;;;;;;5074679;28;20110;-64
2020/12/12 03:40:31;;;;;;;8.57;6.07;;;7.60;99.90;;;;;;5074160;28;20053;-64
2020/12/12 03:42:58;;;;;;;7.88;5.63;;;7.50;99.90;;;;;;5074357;28;20489;-64
2020/12/12 03:45:24;;;;;;;7.32;5.85;;;7.60;99.90;;;;;;5073502;28;20044;-64
2020/12/12 03:47:55;;;;;;;7.78;6.05;;;7.60;99.90;;;;;;5074088;28;20079;-64
2020/12/12 03:50:27;;;;;;;7.03;5.55;;;7.40;99.90;;;;;;5074201;28;20057;-64
2020/12/12 03:52:55;;;;;;;6.55;5.10;;;7.60;99.90;;;;;;5074552;28;20489;-64
2020/12/12 03:55:21;;;;;;;7.03;5.13;;;7.60;99.90;;;;;;5073800;28;20082;-65
2020/12/12 03:57:50;;;;;;;6.90;5.07;;;7.60;99.90;;;;;;5073919;28;20455;-64
2020/12/12 04:00:16;;;;;;;7.85;5.20;;;7.70;99.90;;;;;;5073931;28;20414;-64
2020/12/12 04:02:43;;;;;;;6.80;4.95;;;7.70;99.90;;;;;;5073368;28;20429;-64
2020/12/12 04:05:11;;;;;;;6.20;4.50;;;7.70;99.90;;;;;;5073781;28;20048;-64
2020/12/12 04:07:37;;;;;;;6.00;4.63;;;7.80;99.90;;;;;;5073930;28;20048;-64
2020/12/12 04:10:05;;;;;;;6.03;4.60;;;7.80;99.90;;;;;;5073973;28;20088;-64
2020/12/12 04:12:31;;;;;;;6.53;4.90;;;7.90;99.90;;;;;;5072936;28;20082;-65
2020/12/12 04:14:58;;;;;;;5.93;4.65;;;7.90;99.90;;;;;;5073540;28;20063;-64
2020/12/12 04:17:24;;;;;;;5.38;4.45;;;7.90;99.90;;;;;;5073833;28;20048;-64
2020/12/12 04:19:51;;;;;;;5.55;4.22;;;7.90;99.90;;;;;;5073541;28;20048;-64
2020/12/12 04:22:18;;;;;;;5.60;4.32;;;7.80;99.90;;;;;;5073615;28;20045;-64
2020/12/12 04:24:45;;;;;;;5.90;4.50;;;7.80;99.90;;;;;;5073684;28;20060;-64
2020/12/12 04:27:11;;;;;;;5.55;4.07;;;7.80;99.90;;;;;;5073027;28;20485;-64
2020/12/12 04:29:38;;;;;;;6.68;4.50;;;7.70;99.90;;;;;;5073237;28;20135;-64
2020/12/12 04:32:08;;;;;;;5.63;4.30;;;7.70;99.90;;;;;;5073508;28;20134;-64
2020/12/12 04:34:34;;;;;;;5.88;4.43;;;7.70;99.90;;;;;;5073215;28;20405;-64
2020/12/12 04:37:01;;;;;;;5.28;4.07;;;7.70;99.90;;;;;;5072774;28;20144;-64
2020/12/12 04:39:28;;;;;;;7.32;4.05;;;7.60;99.90;;;;;;5072967;28;20075;-64
2020/12/12 04:41:55;;;;;;;5.13;4.18;;;7.70;99.90;;;;;;5072929;28;20106;-64
2020/12/12 04:44:23;;;;;;;4.68;3.63;;;7.80;99.90;;;;;;5073103;28;20052;-64
2020/12/12 04:46:51;;;;;;;5.43;4.32;;;7.80;99.90;;;;;;5072612;28;20113;-64
2020/12/12 04:49:17;;;;;;;6.00;4.72;;;7.70;99.90;;;;;;5073115;28;20501;-64
2020/12/12 04:51:45;;;;;;;4.63;3.70;;;7.60;99.90;;;;;;5072664;28;20084;-64
2020/12/12 04:54:15;;;;;;;7.65;4.47;;;7.50;99.90;;;;;;5072819;28;20058;-64
2020/12/12 04:56:46;;;;;;;4.78;3.80;;;7.30;99.90;;;;;;5073078;28;20102;-64
2020/12/12 04:59:14;;;;;;;4.47;3.70;;;7.10;99.90;;;;;;5072847;28;20049;-64
2020/12/12 05:01:41;;;;;;;5.85;3.88;;;7.10;99.90;;;;;;5072527;28;20459;-64
2020/12/12 05:04:08;;;;;;;4.25;3.58;;;7.20;99.90;;;;;;5072651;28;20084;-64
2020/12/12 05:06:35;;;;;;;5.13;3.70;;;7.20;99.90;;;;;;5072821;28;20128;-64
2020/12/12 05:09:01;;;;;;;5.68;4.15;;;7.10;99.90;;;;;;5072286;28;20088;-64
2020/12/12 05:11:28;;;;;;;5.40;4.28;;;7.00;99.90;;;;;;5072045;28;20102;-64
2020/12/12 05:13:55;;;;;;;5.28;3.88;;;7.20;99.90;;;;;;5072847;28;20539;-64
2020/12/12 05:16:22;;;;;;;6.18;4.38;;;7.20;99.90;;;;;;5072587;28;20457;-64
2020/12/12 05:18:50;;;;;;;6.13;4.47;;;7.00;99.90;;;;;;5072623;28;20102;-64
2020/12/12 05:21:18;;;;;;;6.43;5.38;;;6.90;99.90;;;;;;5072752;28;20044;-64
2020/12/12 05:23:45;;;;;;;5.38;4.53;;;6.90;99.90;;;;;;5071799;28;20084;-64
2020/12/12 05:26:13;;;;;;;6.20;5.00;;;6.80;99.90;;;;;;5071876;28;20497;-64
2020/12/12 05:28:40;;;;;;;7.25;5.30;;;7.00;99.90;;;;;;5072597;28;20048;-64
2020/12/12 05:31:09;;;;;;;6.78;5.10;;;6.90;99.90;;;;;;5072434;28;20052;-64
2020/12/12 05:33:36;;;;;;;6.33;4.90;;;7.00;99.90;;;;;;5072393;28;20090;-64
2020/12/12 05:36:03;;;;;;;6.45;4.72;;;7.10;99.90;;;;;;5072220;28;20370;-64
2020/12/12 05:38:30;;;;;;;6.00;4.75;;;7.20;99.90;;;;;;5072158;28;20052;-65
2020/12/12 05:40:56;;;;;;;6.03;5.10;;;7.30;99.90;;;;;;5071897;28;20098;-65
2020/12/12 05:43:30;;;;;;;6.28;5.22;;;7.30;99.90;;;;;;5072205;28;20080;-64
2020/12/12 05:45:59;;;;;;;5.88;4.68;;;7.40;99.90;;;;;;5072001;28;20114;-64
2020/12/12 05:48:27;;;;;;;6.38;4.68;;;7.30;99.90;;;;;;5072067;28;20140;-64
2020/12/12 05:50:54;;;;;;;6.32;5.20;;;7.30;99.90;;;;;;5071691;28;20080;-64
2020/12/12 05:53:20;;;;;;;6.53;4.90;;;7.30;99.90;;;;;;5072227;28;20059;-64
2020/12/12 05:55:48;;;;;;;6.68;5.53;;;7.30;99.90;;;;;;5071699;28;20049;-64
2020/12/12 05:58:15;;;;;;;6.20;5.15;;;7.20;99.90;;;;;;5072093;28;20049;-64
2020/12/12 06:00:42;;;;;;;6.70;5.32;;;7.10;99.90;;;;;;5072175;28;20091;-64
2020/12/12 06:03:21;;;;;;;7.90;6.00;;;7.10;99.90;;;;;;5072167;28;20132;-65
2020/12/12 06:05:51;;;;;;;6.40;4.90;;;7.10;99.90;;;;;;5072160;28;20473;-64
2020/12/12 06:08:32;;;;;;;5.50;4.80;;;6.60;99.90;;;;;;5071890;28;20094;-64
2020/12/12 06:11:03;;;;;;;8.32;5.75;;;6.80;99.90;;;;;;5071259;28;20094;-64
2020/12/12 06:13:35;;;;;;;7.07;5.65;;;6.70;99.90;;;;;;5071852;28;20094;-64
2020/12/12 06:16:04;;;;;;;7.22;5.20;;;6.60;99.90;;;;;;5071992;28;20397;-64
2020/12/12 06:18:51;;;;;;;7.93;5.47;;;6.60;99.90;;;;;;5072264;28;20075;-64
2020/12/12 06:21:21;;;;;;;7.53;5.70;;;6.30;99.90;;;;;;5071759;28;20098;-64
2020/12/12 06:23:49;;;;;;;7.70;5.30;;;6.30;99.90;;;;;;5071620;28;20166;-64
2020/12/12 06:26:24;;;;;;;7.93;5.38;;;6.30;99.90;;;;;;5071986;28;20090;-64
2020/12/12 06:28:54;;;;;;;7.10;5.28;;;6.10;99.90;;;;;;5071942;28;20147;-64
2020/12/12 06:31:21;;;;;;;6.78;5.13;;;5.90;99.90;;;;;;5071682;28;20552;-64
2020/12/12 06:33:52;;;;;;;7.25;5.53;;;5.80;99.90;;;;;;5071754;28;20500;-64
2020/12/12 06:36:27;;;;;;;8.05;5.45;;;5.50;99.90;;;;;;5074502;28;20048;-64
2020/12/12 06:39:24;;;;;;;9.25;6.90;;;5.20;99.90;;;;;;5075393;28;20057;-65
2020/12/12 06:41:52;;;;;;;10.25;7.43;;;5.10;99.90;;;;;;5075317;28;20110;-64
2020/12/12 06:44:36;;;;;;;10.45;7.60;;;5.20;99.90;;;;;;5075032;28;20040;-64
2020/12/12 06:47:04;;;;;;;14.10;8.77;;;5.00;99.90;;;;;;5075378;28;20045;-64
2020/12/12 06:49:31;;;;;;;15.85;9.82;;;5.00;99.90;;;;;;5075016;28;20075;-64
2020/12/12 06:51:59;;;;;;;13.68;9.88;;;5.00;99.90;;;;;;5075331;28;20048;-64
2020/12/12 06:54:26;;;;;;;15.07;9.82;;;4.90;99.90;;;;;;5075235;28;20095;-64
2020/12/12 06:56:52;;;;;;;13.82;9.38;;;4.80;99.90;;;;;;5074796;28;20044;-64
2020/12/12 06:59:31;;;;;;;11.43;7.90;;;4.60;99.90;;;;;;5074521;28;20091;-64
2020/12/12 07:01:58;;;;;;;12.45;7.80;;;4.50;99.90;;;;;;5074998;28;20109;-64
2020/12/12 07:04:30;;;;;;;12.57;8.32;;;4.60;99.90;;;;;;5074693;28;20106;-64
2020/12/12 07:07:05;;;;;;;13.38;8.35;;;4.70;99.90;;;;;;5074909;28;20048;-64
2020/12/12 07:09:33;;;;;;;10.70;8.07;;;4.70;99.90;;;;;;5073476;28;20106;-64
2020/12/12 07:12:00;;;;;;;10.90;8.18;;;4.70;99.90;;;;;;5074896;28;20087;-64
2020/12/12 07:14:29;;;;;;;11.55;7.85;;;4.60;99.90;;;;;;5074682;28;20052;-64
2020/12/12 07:16:58;;;;;;;10.35;6.22;;;4.40;99.90;;;;;;5074837;28;20106;-64
2020/12/12 07:19:36;;;;;;;8.60;6.50;;;4.60;99.90;;;;;;5074715;28;20452;-64
2020/12/12 07:22:08;;;;;;;7.85;6.07;;;4.80;99.90;;;;;;5074498;28;20405;-64
2020/12/12 07:24:35;;;;;;;8.23;6.40;;;5.10;99.90;;;;;;5074620;28;20108;-64
2020/12/12 07:27:02;;;;;;;7.80;5.88;;;5.10;99.90;;;;;;5074772;28;20056;-64
2020/12/12 07:29:30;;;;;;;8.43;5.85;;;5.20;99.90;;;;;;5074403;28;20049;-65
2020/12/12 07:31:58;;;;;;;6.88;5.38;;;5.30;99.90;;;;;;5074345;28;20055;-65
2020/12/12 07:34:25;;;;;;;7.38;5.65;;;5.40;99.90;;;;;;5074232;28;20048;-65
2020/12/12 07:37:00;;;;;;;6.78;5.20;;;5.50;99.90;;;;;;5074629;28;20048;-65
2020/12/12 07:39:29;;;;;;;7.05;5.03;;;5.50;99.90;;;;;;5074174;28;20110;-65
2020/12/12 07:41:58;;;;;;;6.37;4.83;;;5.50;99.90;;;;;;5074884;28;20096;-65
2020/12/12 07:44:27;;;;;;;5.57;4.60;;;5.60;99.90;;;;;;5074073;28;20546;-65
2020/12/12 07:46:55;;;;;;;4.78;4.10;;;5.80;99.90;;;;;;5073057;28;20118;-65
2020/12/12 07:49:22;;;;;;;5.80;4.40;;;5.70;99.90;;;;;;5073995;28;20060;-65
2020/12/12 07:51:58;;;;;;;6.72;4.70;;;5.90;99.90;;;;;;5074189;28;20101;-65
2020/12/12 07:54:35;;;;;;;5.30;4.18;;;5.90;99.90;;;;;;5074049;28;20052;-65
2020/12/12 07:57:02;;;;;;;6.15;4.78;;;6.10;99.90;;;;;;5073764;28;20148;-65
2020/12/12 07:59:30;;;;;;;6.55;4.88;;;6.30;99.90;;;;;;5073874;28;20102;-65
2020/12/12 08:02:01;;;;;;;5.93;4.57;;;6.20;99.90;;;;;;5074024;28;20139;-65
2020/12/12 08:04:28;;;;;;;7.40;5.00;;;6.20;99.90;;;;;;5073897;28;20464;-65
2020/12/12 08:06:55;;;;;;;5.63;4.32;;;6.10;99.90;;;;;;5078873;28;20386;-65
2020/12/12 08:09:23;;;;;;;5.78;4.40;;;6.20;99.90;;;;;;5073933;28;20048;-65
2020/12/12 08:12:01;;;;;;;6.75;5.15;;;6.20;99.90;;;;;;5073570;28;20053;-65
2020/12/12 08:14:30;;;;;;;8.00;5.45;;;6.20;99.90;;;;;;5073531;28;20080;-65
2020/12/12 08:16:58;;;;;;;7.20;4.82;;;6.30;99.90;;;;;;5079550;28;20044;-65
2020/12/12 08:19:28;;;;;;;6.38;4.90;;;6.50;99.90;;;;;;5073523;28;20122;-65
2020/12/12 08:22:07;;;;;;;7.15;5.10;;;6.60;99.90;;;;;;5073656;28;20048;-65
2020/12/12 08:24:33;;;;;;;6.10;5.03;;;6.50;99.90;;;;;;5073512;28;20056;-65
2020/12/12 08:27:10;;;;;;;7.22;5.05;;;6.50;99.90;;;;;;5073670;28;20052;-65
2020/12/12 08:29:43;;;;;;;6.10;4.68;;;6.70;99.90;;;;;;5073153;28;20056;-65
2020/12/12 08:32:24;;;;;;;6.55;4.80;;;6.90;99.90;;;;;;5073396;28;20086;-65
2020/12/12 08:34:51;;;;;;;6.18;5.03;;;7.30;99.90;;;;;;5073474;28;20454;-65
2020/12/12 08:37:18;;;;;;;8.48;5.63;;;7.80;99.90;;;;;;5073041;28;20053;-65
2020/12/12 08:39:46;;;;;;;8.68;5.70;;;8.00;99.90;;;;;;5072874;28;20058;-65
2020/12/12 08:42:23;;;;;;;7.60;5.68;;;8.00;99.90;;;;;;5073328;28;20056;-65
2020/12/12 08:44:49;;;;;;;7.45;5.50;;;8.10;99.90;;;;;;5072690;28;20049;-65
2020/12/12 08:47:16;;;;;;;8.73;6.47;;;8.30;99.90;;;;;;5073000;28;20045;-65
2020/12/12 08:49:42;;;;;;;8.45;6.15;;;8.30;99.90;;;;;;5073045;28;20051;-65
2020/12/12 08:52:09;;;;;;;8.20;6.13;;;8.30;99.90;;;;;;5073075;28;20044;-65
2020/12/12 08:54:35;;;;;;;5.15;4.45;;;8.40;99.90;;;;;;5072698;28;20092;-65
2020/12/12 08:57:09;;;;;;;4.85;4.13;;;8.50;99.90;;;;;;5072764;28;20060;-65
2020/12/12 08:59:36;;;;;;;4.82;4.30;;;8.40;99.90;;;;;;5076351;28;20499;-65
2020/12/12 09:02:14;;;;;;;5.85;4.05;;;8.30;99.90;;;;;;5083153;28;20048;-65
2020/12/12 09:04:40;;;;;;;5.90;3.83;;;8.40;99.90;;;;;;5073043;28;20507;-65
2020/12/12 09:07:07;;;;;;;5.28;4.38;;;8.40;99.90;;;;;;5080231;28;20484;-65
2020/12/12 09:09:33;;;;;;;4.30;3.50;;;8.60;99.90;;;;;;5080459;28;20048;-65
2020/12/12 09:12:01;;;;;;;5.15;3.47;;;8.80;99.90;;;;;;5073056;28;20051;-65
2020/12/12 09:14:29;;;;;;;4.25;3.70;;;9.00;99.90;;;;;;5073442;28;20102;-65
2020/12/12 09:16:58;;;;;;;4.95;3.75;;;9.10;99.90;;;;;;5077477;28;20052;-65
2020/12/12 09:19:26;;;;;;;4.93;4.13;;;9.30;99.90;;;;;;5081945;28;20054;-65
2020/12/12 09:21:52;;;;;;;5.05;3.58;;;9.50;99.90;;;;;;5075835;28;20087;-65
2020/12/12 09:24:21;;;;;;;5.63;4.35;;;9.60;99.90;;;;;;5082987;28;20056;-65
2020/12/12 09:26:49;;;;;;;4.77;4.10;;;9.70;99.90;;;;;;5074408;28;21253;-65
2020/12/12 09:29:16;;;;;;;5.80;4.03;;;9.80;99.90;;;;;;5074154;28;20506;-65
2020/12/12 09:31:43;;;;;;;5.25;4.10;;;9.90;99.90;;;;;;5081583;28;20040;-65
2020/12/12 09:34:11;;;;;;;5.88;4.32;;;10.10;99.90;;;;;;5076556;28;20063;-65
2020/12/12 09:36:37;;;;;;;4.43;3.72;;;10.10;99.90;;;;;;5084215;28;20056;-65
2020/12/12 09:39:04;;;;;;;4.43;3.60;;;10.00;99.90;;;;;;5075165;28;20099;-65
2020/12/12 09:41:32;;;;;;;4.82;3.78;;;10.00;99.90;;;;;;5073388;28;20095;-65
2020/12/12 09:44:01;;;;;;;4.82;3.90;;;9.90;99.90;;;;;;5080136;28;20471;-65
2020/12/12 09:46:27;;;;;;;4.07;3.37;;;10.10;99.90;;;;;;5079260;28;20052;-65
2020/12/12 09:48:54;;;;;;;4.30;3.70;;;10.10;99.90;;;;;;5076529;28;20048;-65
2020/12/12 09:51:22;;;;;;;4.32;3.28;;;10.20;99.90;;;;;;5087709;28;20048;-65
2020/12/12 09:53:49;;;;;;;3.55;3.20;;;10.90;99.90;;;;;;5082368;28;20432;-65
2020/12/12 09:56:16;;;;;;;3.88;3.10;;;11.00;99.90;;;;;;5086017;28;20186;-65
2020/12/12 09:58:43;;;;;;;4.07;2.95;;;11.40;99.90;;;;;;5070795;28;20505;-65
2020/12/12 10:01:10;;;;;;;3.78;3.22;;;11.40;99.90;;;;;;5070378;28;20366;-65
2020/12/12 10:03:36;;;;;;;3.25;2.95;;;12.00;99.90;;;;;;5081589;28;20037;-65
2020/12/12 10:06:05;;;;;;;3.05;2.70;;;12.20;99.90;;;;;;5079942;28;20084;-65
2020/12/12 10:08:33;;;;;;;4.10;3.05;;;12.40;99.90;;;;;;5073475;28;20451;-65
2020/12/12 10:10:59;;;;;;;4.05;3.40;;;12.50;99.90;;;;;;5074069;28;20464;-65
2020/12/12 10:13:28;;;;;;;3.22;2.72;;;12.60;99.90;;;;;;5075297;28;20101;-65
2020/12/12 10:15:55;;;;;;;4.47;2.80;;;12.50;99.90;;;;;;5075023;28;20088;-65
2020/12/12 10:18:21;;;;;;;4.10;3.70;;;12.50;99.90;;;;;;5075504;28;20094;-65
2020/12/12 10:20:48;;;;;;;3.70;3.22;;;12.90;99.90;;;;;;5075666;28;20052;-65
2020/12/12 10:23:15;;;;;;;4.18;3.30;;;12.80;99.90;;;;;;5075241;28;20551;-65
2020/12/12 10:25:42;;;;;;;4.03;3.25;;;12.80;99.90;;;;;;5074978;28;20052;-65
2020/12/12 10:28:08;;;;;;;4.07;3.40;;;12.50;99.90;;;;;;5075344;28;20091;-65
2020/12/12 10:30:35;;;;;;;4.22;3.38;;;12.10;99.90;;;;;;5075762;28;20484;-65
2020/12/12 10:33:02;;;;;;;4.50;3.38;;;11.40;99.90;;;;;;5074816;28;20126;-65
2020/12/12 10:35:30;;;;;;;3.65;3.05;;;11.10;99.90;;;;;;5075123;28;20044;-65
2020/12/12 10:37:58;;;;;;;3.40;2.58;;;10.90;99.90;;;;;;5075181;28;20049;-65
2020/12/12 10:40:29;;;;;;;5.50;3.92;;;10.80;99.90;;;;;;5075542;28;20048;-65
2020/12/12 10:42:57;;;;;;;5.20;3.90;;;10.70;99.90;;;;;;5075145;28;20480;-65
2020/12/12 10:45:23;;;;;;;4.05;3.20;;;10.80;99.90;;;;;;5088909;28;20088;-65
2020/12/12 10:47:50;;;;;;;5.38;3.40;;;10.90;99.90;;;;;;5075301;28;20052;-65
2020/12/12 10:50:17;;;;;;;4.60;3.70;;;10.90;99.90;;;;;;5082295;28;20084;-65
2020/12/12 10:52:44;;;;;;;4.45;3.75;;;11.00;99.90;;;;;;5082896;28;20094;-65
2020/12/12 10:55:11;;;;;;;5.22;3.40;;;10.90;99.90;;;;;;5092819;28;20105;-65
2020/12/12 10:57:38;;;;;;;4.20;3.45;;;10.90;99.90;;;;;;5095207;28;20521;-65
2020/12/12 11:00:06;;;;;;;3.95;3.00;;;11.10;99.90;;;;;;5092570;28;20048;-65
2020/12/12 11:02:34;;;;;;;4.07;3.22;;;11.00;99.90;;;;;;5092884;28;20090;-65
2020/12/12 11:05:01;;;;;;;3.92;3.22;;;11.00;99.90;;;;;;5086957;28;20144;-65
2020/12/12 11:07:28;;;;;;;4.25;3.50;;;10.90;99.90;;;;;;5077953;28;20051;-65
2020/12/12 11:09:54;;;;;;;4.88;3.38;;;10.60;99.90;;;;;;5082468;28;20048;-65
2020/12/12 11:12:21;;;;;;;4.20;3.22;;;10.50;99.90;;;;;;5074736;28;20102;-65
2020/12/12 11:14:52;;;;;;;4.32;3.35;;;10.40;99.90;;;;;;5075224;28;20047;-65
2020/12/12 11:17:20;;;;;;;4.50;3.42;;;10.50;99.90;;;;;;5086980;28;20048;-65
2020/12/12 11:19:46;;;;;;;4.00;3.00;;;10.50;99.90;;;;;;5073874;28;20067;-65
2020/12/12 11:22:13;;;;;;;4.35;3.28;;;10.60;99.90;;;;;;5073418;28;20401;-65
2020/12/12 11:24:42;;;;;;;4.38;3.17;;;10.50;99.90;;;;;;5074697;28;20110;-65
2020/12/12 11:27:09;;;;;;;4.35;3.35;;;10.50;99.90;;;;;;5074696;28;20048;-65
2020/12/12 11:29:37;;;;;;;3.55;2.95;;;10.50;99.90;;;;;;5074477;28;20094;-65
2020/12/12 11:32:04;;;;;;;3.85;3.13;;;10.50;99.90;;;;;;5073721;28;20417;-65
2020/12/12 11:34:37;;;;;;;4.05;3.10;;;10.50;99.90;;;;;;5073992;28;20103;-65
2020/12/12 11:37:24;;;;;;;4.05;2.80;;;10.60;99.90;;;;;;5074112;28;20094;-65
2020/12/12 11:39:57;;;;;;;3.88;2.85;;;10.60;99.90;;;;;;5074056;28;20052;-65
2020/12/12 11:42:44;;;;;;;4.95;3.10;;;10.50;99.90;;;;;;5074172;28;20055;-65
2020/12/12 11:48:07;;;;;;;3.97;3.33;;;10.50;99.90;;;;;;5073488;28;20051;-65
2020/12/12 11:50:34;;;;;;;4.05;2.90;;;10.40;99.90;;;;;;5073793;28;20459;-65
2020/12/12 11:53:01;;;;;;;3.92;3.00;;;10.40;99.90;;;;;;5073820;28;20473;-65
2020/12/12 11:55:28;;;;;;;4.70;3.08;;;10.30;99.90;;;;;;5073889;28;20484;-65
2020/12/12 11:57:55;;;;;;;4.63;3.03;;;10.20;99.90;;;;;;5073542;28;20060;-65
2020/12/12 12:00:22;;;;;;;3.05;2.70;;;10.10;99.90;;;;;;5073363;28;20125;-65
2020/12/12 12:02:49;;;;;;;4.30;2.78;;;10.00;99.90;;;;;;5073686;28;20076;-65
2020/12/12 12:05:16;;;;;;;3.60;2.55;;;10.00;99.90;;;;;;5073497;28;20092;-65
2020/12/12 12:07:45;;;;;;;4.35;3.00;;;9.90;99.90;;;;;;5073546;28;20110;-65
2020/12/12 12:10:17;;;;;;;4.15;2.95;;;9.70;99.90;;;;;;5073190;28;20052;-65
2020/12/12 12:12:43;;;;;;;5.25;3.00;;;9.60;99.90;;;;;;5073344;28;20404;-65
2020/12/12 12:15:10;;;;;;;4.10;2.95;;;9.50;99.90;;;;;;5073305;28;20485;-65
2020/12/12 12:17:36;;;;;;;5.13;3.03;;;9.50;99.90;;;;;;5073500;28;20124;-65
2020/12/12 12:20:04;;;;;;;4.03;3.25;;;9.50;99.90;;;;;;5073520;28;20060;-65
2020/12/12 12:22:30;;;;;;;4.03;3.05;;;9.50;99.90;;;;;;5073127;28;20048;-65
2020/12/12 12:24:58;;;;;;;3.75;2.75;;;9.40;99.90;;;;;;5073078;28;20084;-65
2020/12/12 12:27:24;;;;;;;4.72;3.45;;;9.40;99.90;;;;;;5073337;28;20048;-65
2020/12/12 12:29:51;;;;;;;5.05;3.40;;;9.40;99.90;;;;;;5072820;28;20048;-65
2020/12/12 12:32:18;;;;;;;4.75;3.22;;;9.30;99.90;;;;;;5072885;28;20079;-65
2020/12/12 12:34:45;;;;;;;4.05;3.10;;;9.50;99.90;;;;;;5073058;28;20049;-65
2020/12/12 12:37:11;;;;;;;4.55;3.53;;;9.50;99.90;;;;;;5073323;28;20076;-65
2020/12/12 12:39:38;;;;;;;4.82;3.60;;;9.50;99.90;;;;;;5072878;28;20092;-65
2020/12/12 12:42:05;;;;;;;5.40;3.88;;;9.40;99.90;;;;;;5072925;28;20048;-65
2020/12/12 12:44:32;;;;;;;6.45;3.60;;;9.60;99.90;;;;;;5072401;28;20158;-65
2020/12/12 12:46:59;;;;;;;5.70;3.60;;;9.60;99.90;;;;;;5072598;28;20083;-65
2020/12/12 12:49:26;;;;;;;5.32;3.50;;;9.30;99.90;;;;;;5072875;28;20048;-65
2020/12/12 12:51:52;;;;;;;6.05;4.25;;;9.30;99.90;;;;;;5072160;28;20098;-65
2020/12/12 12:54:19;;;;;;;6.18;3.83;;;9.40;99.90;;;;;;5072586;28;20059;-65
2020/12/12 12:56:46;;;;;;;5.22;3.70;;;9.40;99.90;;;;;;5072363;28;20052;-65
2020/12/12 12:59:13;;;;;;;6.53;4.15;;;9.40;99.90;;;;;;5077284;28;20048;-65
2020/12/12 13:01:40;;;;;;;6.05;4.13;;;9.40;99.90;;;;;;5072426;28;20478;-65
2020/12/12 13:04:06;;;;;;;6.07;4.30;;;9.50;99.90;;;;;;5072487;28;20041;-65